Time;durP1;ratioP1;P1;durP2;ratioP2;P2;SDS_P1;SDS_P2;PMS_P1;PMS_P2;Temp;Humidity;BMP_temperature;BMP_pressure;BME280_temperature;BME280_humidity;BME280_pressure;Samples;Min_cycle;Max_cycle;Signal;HPM_P1;HPM_P2
2023/04/24 00:00:14;;;;;;;4.65;3.40;;;11.60;99.90;;;;;;5049449;28;20045;-76
2023/04/24 00:02:46;;;;;;;4.90;3.47;;;11.60;99.90;;;;;;5050771;28;20518;-76
2023/04/24 00:05:13;;;;;;;3.83;3.42;;;11.60;99.90;;;;;;5049794;28;20045;-76
2023/04/24 00:07:39;;;;;;;4.38;3.70;;;11.60;99.90;;;;;;5049127;28;20045;-76
2023/04/24 00:10:06;;;;;;;6.50;4.00;;;11.60;99.90;;;;;;5049415;28;20041;-75
2023/04/24 00:12:31;;;;;;;6.20;3.60;;;11.50;99.90;;;;;;5049313;28;20049;-76
2023/04/24 00:14:57;;;;;;;4.63;3.28;;;11.60;99.90;;;;;;5050926;28;20370;-76
2023/04/24 00:17:22;;;;;;;4.32;3.45;;;11.50;99.90;;;;;;5049129;28;20095;-76
2023/04/24 00:19:51;;;;;;;4.43;3.00;;;11.50;99.90;;;;;;5049304;28;20480;-75
2023/04/24 00:22:17;;;;;;;4.55;2.80;;;11.50;99.90;;;;;;5049439;28;20095;-75
2023/04/24 00:24:43;;;;;;;2.70;2.33;;;11.50;99.90;;;;;;5049254;28;20044;-75
2023/04/24 00:27:09;;;;;;;2.65;2.08;;;11.40;99.90;;;;;;5049242;28;20432;-75
2023/04/24 00:29:34;;;;;;;4.45;2.17;;;11.40;99.90;;;;;;5050368;28;20045;-75
2023/04/24 00:32:00;;;;;;;2.42;1.90;;;11.40;99.90;;;;;;5053070;28;20473;-75
2023/04/24 00:34:25;;;;;;;2.88;2.08;;;11.40;99.90;;;;;;5054129;28;20048;-75
2023/04/24 00:36:52;;;;;;;2.42;1.73;;;11.40;99.90;;;;;;5052867;28;20461;-75
2023/04/24 00:39:21;;;;;;;1.90;1.70;;;11.40;99.90;;;;;;5052981;28;20450;-75
2023/04/24 00:41:48;;;;;;;2.08;1.65;;;11.30;99.90;;;;;;5052965;28;20047;-74
2023/04/24 00:44:14;;;;;;;2.78;1.50;;;11.30;99.90;;;;;;5054204;28;20076;-75
2023/04/24 00:46:39;;;;;;;3.47;2.17;;;11.30;99.90;;;;;;5052589;28;20087;-75
2023/04/24 00:49:06;;;;;;;1.80;1.40;;;11.20;99.90;;;;;;5052686;28;20123;-75
2023/04/24 00:51:32;;;;;;;1.83;1.30;;;11.20;99.90;;;;;;5052550;28;20045;-75
2023/04/24 00:53:58;;;;;;;1.50;1.30;;;11.10;99.90;;;;;;5052678;28;20053;-75
2023/04/24 00:56:24;;;;;;;1.40;1.20;;;11.00;99.90;;;;;;5064075;28;20492;-75
2023/04/24 00:58:50;;;;;;;1.13;1.00;;;11.00;99.90;;;;;;5055073;28;20120;-75
2023/04/24 01:01:15;;;;;;;1.38;1.15;;;11.00;99.90;;;;;;5052585;28;20040;-75
2023/04/24 01:03:42;;;;;;;1.23;1.10;;;10.90;99.90;;;;;;5052399;28;20190;-75
2023/04/24 01:06:09;;;;;;;1.40;1.10;;;10.90;99.90;;;;;;5052370;28;20053;-74
2023/04/24 01:08:35;;;;;;;1.35;1.08;;;10.90;99.90;;;;;;5052225;28;20051;-74
2023/04/24 01:11:03;;;;;;;1.27;1.10;;;10.90;99.90;;;;;;5052327;28;20048;-74
2023/04/24 01:13:29;;;;;;;1.42;1.10;;;10.90;99.90;;;;;;5052188;28;20041;-74
2023/04/24 01:15:55;;;;;;;1.48;1.10;;;10.80;99.90;;;;;;5053320;28;20189;-74
2023/04/24 01:18:21;;;;;;;2.17;1.10;;;10.90;99.90;;;;;;5052011;28;20044;-74
2023/04/24 01:20:50;;;;;;;3.33;1.58;;;10.90;99.90;;;;;;5052298;28;20041;-73
2023/04/24 01:23:17;;;;;;;1.60;1.20;;;10.80;99.90;;;;;;5052152;28;20049;-74
2023/04/24 01:25:42;;;;;;;1.50;1.13;;;10.90;99.90;;;;;;5053265;28;20451;-74
2023/04/24 01:28:08;;;;;;;1.45;1.20;;;10.90;99.90;;;;;;5053099;28;20041;-74
2023/04/24 01:30:34;;;;;;;1.90;1.30;;;10.90;99.90;;;;;;5051939;28;20041;-74
2023/04/24 01:33:00;;;;;;;1.20;1.10;;;10.90;99.90;;;;;;5051738;28;20041;-73
2023/04/24 01:35:26;;;;;;;1.45;1.15;;;10.80;99.90;;;;;;5051802;28;20095;-74
2023/04/24 01:37:52;;;;;;;1.50;1.25;;;10.80;99.90;;;;;;5051495;28;20519;-74
2023/04/24 01:40:18;;;;;;;1.45;1.30;;;10.80;99.90;;;;;;5051690;28;20069;-74
2023/04/24 01:42:43;;;;;;;2.38;1.40;;;10.80;99.90;;;;;;5051990;28;20451;-74
2023/04/24 01:45:11;;;;;;;3.03;1.42;;;10.70;99.90;;;;;;5053246;28;20045;-73
2023/04/24 01:47:37;;;;;;;1.55;1.40;;;10.70;99.90;;;;;;5051371;28;20048;-73
2023/04/24 01:50:04;;;;;;;1.95;1.40;;;10.70;99.90;;;;;;5051447;28;20041;-73
2023/04/24 01:52:31;;;;;;;2.33;1.60;;;10.70;99.90;;;;;;5051579;28;20051;-74
2023/04/24 01:54:59;;;;;;;1.60;1.50;;;10.60;99.90;;;;;;5051314;28;20049;-74
2023/04/24 01:57:25;;;;;;;2.20;2.00;;;10.60;99.90;;;;;;5065391;28;20041;-74
2023/04/24 01:59:51;;;;;;;1.98;1.80;;;10.50;99.90;;;;;;5051346;28;20048;-73
2023/04/24 02:02:17;;;;;;;2.08;1.83;;;10.50;99.90;;;;;;5051276;28;20057;-73
2023/04/24 02:04:42;;;;;;;2.10;1.90;;;10.40;99.90;;;;;;5051204;28;20120;-73
2023/04/24 02:07:08;;;;;;;2.03;1.83;;;10.60;99.90;;;;;;5051126;28;20049;-73
2023/04/24 02:09:33;;;;;;;2.50;2.30;;;10.40;99.90;;;;;;5051388;28;20044;-74
2023/04/24 02:12:00;;;;;;;2.40;2.20;;;10.40;99.90;;;;;;5051183;28;20080;-73
2023/04/24 02:14:26;;;;;;;2.55;2.35;;;10.40;99.90;;;;;;5051057;28;20048;-73
2023/04/24 02:16:51;;;;;;;2.95;2.35;;;10.40;99.90;;;;;;5050918;28;20353;-73
2023/04/24 02:19:17;;;;;;;3.00;2.70;;;10.40;99.90;;;;;;5050836;28;20035;-73
2023/04/24 02:21:42;;;;;;;4.00;2.80;;;10.40;99.90;;;;;;5051083;28;20084;-73
2023/04/24 02:24:08;;;;;;;3.40;2.78;;;10.40;99.90;;;;;;5050857;28;20556;-74
2023/04/24 02:26:33;;;;;;;3.50;3.20;;;10.40;99.90;;;;;;5050889;28;20048;-73
2023/04/24 02:28:59;;;;;;;3.90;2.95;;;10.40;99.90;;;;;;5051027;28;20084;-73
2023/04/24 02:31:25;;;;;;;3.22;2.92;;;10.40;99.90;;;;;;5050767;28;20088;-73
2023/04/24 02:33:50;;;;;;;3.47;3.17;;;10.40;99.90;;;;;;5050725;28;20206;-73
2023/04/24 02:36:16;;;;;;;4.63;3.55;;;10.40;99.90;;;;;;5051964;28;20037;-74
2023/04/24 02:38:41;;;;;;;3.50;3.03;;;10.40;99.90;;;;;;5051813;28;20041;-73
2023/04/24 02:41:07;;;;;;;3.88;3.47;;;10.40;99.90;;;;;;5050577;28;20413;-73
2023/04/24 02:43:33;;;;;;;4.35;3.92;;;10.40;99.90;;;;;;5050568;28;20124;-74
2023/04/24 02:45:59;;;;;;;4.50;3.95;;;10.30;99.90;;;;;;5050538;28;20037;-74
2023/04/24 02:48:24;;;;;;;5.40;3.88;;;10.30;99.90;;;;;;5051486;28;20036;-74
2023/04/24 02:50:50;;;;;;;4.07;3.65;;;10.30;99.90;;;;;;5052065;28;20074;-74
2023/04/24 02:53:16;;;;;;;4.60;4.20;;;10.30;99.90;;;;;;5049795;28;20049;-74
2023/04/24 02:55:41;;;;;;;4.78;4.18;;;10.30;99.90;;;;;;5057232;28;20029;-74
2023/04/24 02:58:07;;;;;;;4.88;4.47;;;10.30;99.90;;;;;;5059618;28;20059;-74
2023/04/24 03:00:33;;;;;;;5.90;4.32;;;10.30;99.90;;;;;;5050260;28;20106;-74
2023/04/24 03:02:58;;;;;;;5.15;4.57;;;10.30;99.90;;;;;;5050230;28;20144;-74
2023/04/24 03:05:24;;;;;;;9.15;5.07;;;10.30;99.90;;;;;;5051513;28;20055;-74
2023/04/24 03:07:52;;;;;;;5.30;4.80;;;10.30;99.90;;;;;;5050133;28;20043;-75
2023/04/24 03:10:18;;;;;;;6.10;5.50;;;10.30;99.90;;;;;;5050177;28;20496;-75
2023/04/24 03:12:43;;;;;;;6.50;5.05;;;10.30;99.90;;;;;;5050066;28;20037;-75
2023/04/24 03:15:09;;;;;;;6.03;5.43;;;10.30;99.90;;;;;;5050047;28;20041;-75
2023/04/24 03:17:35;;;;;;;6.45;5.72;;;10.30;99.90;;;;;;5050964;28;20044;-74
2023/04/24 03:20:01;;;;;;;7.90;6.72;;;10.30;99.90;;;;;;5050041;28;20108;-74
2023/04/24 03:22:26;;;;;;;8.07;7.28;;;10.30;99.90;;;;;;5049907;28;20112;-74
2023/04/24 03:24:52;;;;;;;8.48;7.03;;;10.30;99.90;;;;;;5049981;28;20143;-74
2023/04/24 03:27:17;;;;;;;8.32;7.53;;;10.30;99.90;;;;;;5049809;28;20040;-74
2023/04/24 03:29:43;;;;;;;9.15;8.25;;;10.30;99.90;;;;;;5049694;28;20330;-75
2023/04/24 03:32:08;;;;;;;8.98;8.15;;;10.30;99.90;;;;;;5051110;28;20488;-74
2023/04/24 03:34:34;;;;;;;9.02;8.13;;;10.20;99.90;;;;;;5049582;28;20041;-74
2023/04/24 03:37:00;;;;;;;10.00;9.00;;;10.20;99.90;;;;;;5050981;28;20037;-74
2023/04/24 03:39:25;;;;;;;9.30;8.35;;;10.20;99.90;;;;;;5050851;28;20051;-74
2023/04/24 03:41:51;;;;;;;9.95;8.82;;;10.20;99.90;;;;;;5049693;28;20401;-75
2023/04/24 03:44:17;;;;;;;10.60;9.38;;;10.20;99.90;;;;;;5049745;28;20048;-74
2023/04/24 03:46:42;;;;;;;10.05;8.77;;;10.20;99.90;;;;;;5049344;28;20059;-75
2023/04/24 03:49:08;;;;;;;11.10;8.55;;;10.20;99.90;;;;;;5050806;28;20056;-74
2023/04/24 03:51:33;;;;;;;9.90;8.95;;;10.20;99.90;;;;;;5049544;28;20447;-74
2023/04/24 03:53:59;;;;;;;9.32;8.32;;;10.20;99.90;;;;;;5049380;28;20111;-74
2023/04/24 03:56:24;;;;;;;8.73;7.85;;;10.20;99.90;;;;;;5061283;28;20040;-74
2023/04/24 03:58:50;;;;;;;10.20;7.78;;;10.20;99.90;;;;;;5053091;28;20033;-75
2023/04/24 04:01:16;;;;;;;8.40;7.57;;;10.20;99.90;;;;;;5049498;28;20133;-75
2023/04/24 04:03:41;;;;;;;8.20;7.40;;;10.20;99.90;;;;;;5049683;28;20128;-75
2023/04/24 04:06:07;;;;;;;8.55;7.63;;;10.20;99.90;;;;;;5053502;28;20059;-75
2023/04/24 04:08:32;;;;;;;7.85;7.05;;;10.10;99.90;;;;;;5053434;28;20048;-75
2023/04/24 04:10:58;;;;;;;10.40;7.43;;;10.20;99.90;;;;;;5054826;28;20091;-75
2023/04/24 04:13:24;;;;;;;9.13;7.50;;;10.20;99.90;;;;;;5053500;28;20045;-75
2023/04/24 04:15:49;;;;;;;10.65;7.80;;;10.20;99.90;;;;;;5053325;28;20041;-75
2023/04/24 04:18:15;;;;;;;7.82;7.10;;;10.20;99.90;;;;;;5053211;28;20493;-75
2023/04/24 04:20:41;;;;;;;7.82;7.13;;;10.10;99.90;;;;;;5053420;28;20037;-75
2023/04/24 04:23:06;;;;;;;7.88;7.07;;;10.20;99.90;;;;;;5053507;28;20415;-75
2023/04/24 04:25:32;;;;;;;7.78;6.97;;;10.10;99.90;;;;;;5054624;28;20120;-75
2023/04/24 04:27:59;;;;;;;7.28;6.57;;;10.10;99.90;;;;;;5052982;28;20032;-75
2023/04/24 04:30:25;;;;;;;7.63;6.85;;;10.10;99.90;;;;;;5053256;28;20147;-75
2023/04/24 04:32:51;;;;;;;7.10;6.40;;;10.10;99.90;;;;;;5054388;28;20044;-75
2023/04/24 04:35:17;;;;;;;7.38;6.68;;;10.20;99.90;;;;;;5054493;28;20037;-74
2023/04/24 04:37:42;;;;;;;8.95;6.72;;;10.10;99.90;;;;;;5053002;28;20037;-75
2023/04/24 04:40:11;;;;;;;7.05;6.05;;;10.10;99.90;;;;;;5054281;28;20091;-74
2023/04/24 04:42:40;;;;;;;6.63;5.95;;;10.10;99.90;;;;;;5052974;28;20073;-75
2023/04/24 04:45:09;;;;;;;6.40;5.57;;;10.10;99.90;;;;;;5052810;28;20504;-75
2023/04/24 04:47:35;;;;;;;6.32;5.72;;;10.10;99.90;;;;;;5054039;28;20037;-75
2023/04/24 04:50:00;;;;;;;6.65;5.90;;;10.10;99.90;;;;;;5052621;28;20136;-75
2023/04/24 04:52:27;;;;;;;6.25;5.53;;;10.10;99.90;;;;;;5054292;28;20044;-75
2023/04/24 04:54:52;;;;;;;6.32;5.72;;;10.00;99.90;;;;;;5053742;28;20040;-75
2023/04/24 04:57:18;;;;;;;6.13;5.47;;;10.00;99.90;;;;;;5066502;28;20116;-74
2023/04/24 04:59:43;;;;;;;4.93;4.43;;;10.00;99.90;;;;;;5052464;28;20041;-74
2023/04/24 05:02:09;;;;;;;4.93;4.28;;;10.00;99.90;;;;;;5052496;28;20519;-75
2023/04/24 05:04:35;;;;;;;5.65;5.03;;;10.10;99.90;;;;;;5052848;28;20106;-75
2023/04/24 05:07:00;;;;;;;6.88;6.10;;;10.10;99.90;;;;;;5052238;28;20385;-74
2023/04/24 05:09:27;;;;;;;5.43;4.25;;;10.10;99.90;;;;;;5053652;28;20549;-74
2023/04/24 05:11:53;;;;;;;4.95;4.10;;;10.10;99.90;;;;;;5053734;28;20052;-75
2023/04/24 05:14:18;;;;;;;3.92;2.40;;;10.10;99.90;;;;;;5053442;28;20493;-75
2023/04/24 05:16:44;;;;;;;3.17;2.20;;;10.10;99.90;;;;;;5051805;28;20045;-74
2023/04/24 05:19:11;;;;;;;2.83;2.08;;;10.20;99.90;;;;;;5051981;28;20508;-74
2023/04/24 05:21:37;;;;;;;2.53;1.85;;;10.20;99.90;;;;;;5053622;28;20500;-74
2023/04/24 05:24:03;;;;;;;3.10;2.03;;;10.20;99.90;;;;;;5053232;28;20120;-74
2023/04/24 05:26:28;;;;;;;2.75;2.28;;;10.20;99.90;;;;;;5052190;28;20057;-74
2023/04/24 05:28:54;;;;;;;2.63;1.90;;;10.20;99.90;;;;;;5051959;28;20093;-74
2023/04/24 05:31:20;;;;;;;2.50;1.70;;;10.20;99.90;;;;;;5051973;28;20445;-74
2023/04/24 05:33:45;;;;;;;2.50;1.60;;;10.20;99.90;;;;;;5053200;28;20496;-74
2023/04/24 05:36:11;;;;;;;1.70;1.33;;;10.20;99.90;;;;;;5051912;28;20136;-74
2023/04/24 05:38:36;;;;;;;2.00;1.50;;;10.10;99.90;;;;;;5051727;28;20041;-75
2023/04/24 05:41:02;;;;;;;2.13;1.35;;;10.10;99.90;;;;;;5051689;28;20044;-75
2023/04/24 05:43:27;;;;;;;1.83;1.50;;;10.10;99.90;;;;;;5053105;28;20044;-76
2023/04/24 05:45:53;;;;;;;2.70;1.45;;;10.10;99.90;;;;;;5051884;28;20041;-75
2023/04/24 05:48:19;;;;;;;2.85;1.70;;;10.00;99.90;;;;;;5051522;28;20052;-75
2023/04/24 05:50:45;;;;;;;2.20;1.73;;;10.00;99.90;;;;;;5051670;28;20037;-76
2023/04/24 05:53:10;;;;;;;2.00;1.63;;;10.00;99.90;;;;;;5053127;28;20086;-76
2023/04/24 05:55:36;;;;;;;3.00;2.00;;;10.00;99.90;;;;;;5056379;28;20105;-77
2023/04/24 05:58:02;;;;;;;2.58;1.70;;;10.00;99.90;;;;;;5061625;28;20461;-76
2023/04/24 06:00:28;;;;;;;2.80;2.00;;;9.90;99.90;;;;;;5051705;28;20154;-77
2023/04/24 06:02:54;;;;;;;3.30;2.53;;;9.90;99.90;;;;;;5051442;28;20037;-77
2023/04/24 06:05:19;;;;;;;4.15;2.28;;;9.90;99.90;;;;;;5051448;28;20378;-76
2023/04/24 06:07:45;;;;;;;3.22;2.58;;;9.90;99.90;;;;;;5051195;28;20044;-77
2023/04/24 06:10:11;;;;;;;4.15;2.60;;;9.90;99.90;;;;;;5053048;28;20045;-77
2023/04/24 06:12:37;;;;;;;2.97;2.25;;;9.90;99.90;;;;;;5051683;28;20059;-78
2023/04/24 06:15:03;;;;;;;4.47;2.97;;;9.90;99.90;;;;;;5051957;28;20045;-79
2023/04/24 06:17:29;;;;;;;6.32;3.60;;;9.90;99.90;;;;;;5051585;28;20120;-78
2023/04/24 06:19:54;;;;;;;4.50;3.00;;;9.90;99.90;;;;;;5052148;28;20120;-78
2023/04/24 06:22:20;;;;;;;6.07;3.28;;;9.90;99.90;;;;;;5052797;28;20049;-79
2023/04/24 06:24:47;;;;;;;6.20;4.10;;;10.00;99.90;;;;;;5054250;28;20412;-79
2023/04/24 06:27:12;;;;;;;5.85;3.35;;;9.90;99.90;;;;;;5052057;28;20154;-79
2023/04/24 06:29:38;;;;;;;6.55;3.60;;;9.90;99.90;;;;;;5054028;28;20064;-78
2023/04/24 06:32:03;;;;;;;6.50;3.67;;;10.00;99.90;;;;;;5052773;28;20075;-79
2023/04/24 06:34:30;;;;;;;6.07;4.00;;;10.00;99.90;;;;;;5055004;28;20048;-80
2023/04/24 06:36:56;;;;;;;5.80;4.47;;;10.00;99.90;;;;;;5053317;28;20045;-80
2023/04/24 06:39:21;;;;;;;5.35;3.72;;;10.00;99.90;;;;;;5052318;28;20047;-80
2023/04/24 06:41:47;;;;;;;6.82;4.70;;;10.00;99.90;;;;;;5053609;28;20060;-79
2023/04/24 06:44:14;;;;;;;6.20;4.72;;;10.10;99.90;;;;;;5053679;28;20067;-80
2023/04/24 06:46:40;;;;;;;6.85;3.90;;;10.10;99.90;;;;;;5053800;28;20492;-80
2023/04/24 06:49:06;;;;;;;7.32;4.82;;;10.10;99.90;;;;;;5055198;28;20094;-80
2023/04/24 06:51:32;;;;;;;6.15;4.07;;;10.10;99.90;;;;;;5056625;28;20040;-80
2023/04/24 06:53:58;;;;;;;4.72;3.08;;;10.10;99.90;;;;;;5053317;28;20045;-83
2023/04/24 06:56:25;;;;;;;3.40;2.88;;;10.10;99.90;;;;;;5065449;28;20033;-81
2023/04/24 06:58:51;;;;;;;4.68;2.80;;;10.10;99.90;;;;;;5055364;28;20029;-82
2023/04/24 07:01:16;;;;;;;3.53;2.55;;;10.10;99.90;;;;;;5054108;28;20439;-82
2023/04/24 07:03:42;;;;;;;3.47;2.25;;;10.10;99.90;;;;;;5053778;28;20041;-82
2023/04/24 07:06:09;;;;;;;3.60;2.20;;;10.10;99.90;;;;;;5052978;28;20040;-81
2023/04/24 07:08:35;;;;;;;3.28;2.20;;;10.10;99.90;;;;;;5053044;28;20072;-81
2023/04/24 07:11:01;;;;;;;3.45;1.90;;;10.10;99.90;;;;;;5055168;28;20036;-83
2023/04/24 07:13:27;;;;;;;2.45;1.60;;;10.10;99.90;;;;;;5053343;28;20040;-83
2023/04/24 07:15:54;;;;;;;3.25;1.80;;;10.10;99.90;;;;;;5052116;28;20041;-84
2023/04/24 07:18:20;;;;;;;5.38;1.95;;;10.10;99.90;;;;;;5055886;28;20071;-84
2023/04/24 07:20:46;;;;;;;5.97;1.67;;;10.10;99.90;;;;;;5052536;28;20090;-84
2023/04/24 07:23:12;;;;;;;2.95;1.55;;;10.10;99.90;;;;;;5051887;28;20029;-84
2023/04/24 07:25:38;;;;;;;5.18;2.17;;;10.10;99.90;;;;;;5051817;28;20114;-83
2023/04/24 07:28:04;;;;;;;3.97;2.13;;;10.10;99.90;;;;;;5053960;28;20546;-83
2023/04/24 07:30:32;;;;;;;5.20;2.17;;;10.10;99.90;;;;;;5051882;28;20045;-83
2023/04/24 07:32:58;;;;;;;6.03;2.75;;;10.10;99.90;;;;;;5055186;28;20090;-82
2023/04/24 07:35:25;;;;;;;6.07;2.15;;;10.00;99.90;;;;;;5053121;28;20048;-82
2023/04/24 07:37:53;;;;;;;3.22;1.85;;;9.90;99.90;;;;;;5052729;28;20049;-83
2023/04/24 07:40:20;;;;;;;3.80;1.58;;;9.90;99.90;;;;;;5053959;28;20040;-81
2023/04/24 07:42:48;;;;;;;4.57;1.95;;;9.90;99.90;;;;;;5052610;28;20055;-83
2023/04/24 07:45:14;;;;;;;7.13;1.90;;;9.80;99.90;;;;;;5053975;28;20060;-82
2023/04/24 07:47:42;;;;;;;4.50;1.65;;;9.80;99.90;;;;;;5053515;28;20045;-81
2023/04/24 07:50:08;;;;;;;4.97;1.63;;;9.80;99.90;;;;;;5055493;28;20363;-79
2023/04/24 07:52:34;;;;;;;7.68;2.60;;;9.80;99.90;;;;;;5057098;28;20041;-82
2023/04/24 07:55:01;;;;;;;8.52;4.45;;;9.80;99.90;;;;;;5037201;28;20041;-81
2023/04/24 07:57:27;;;;;;;10.27;5.43;;;9.70;99.90;;;;;;5054194;28;20048;-82
2023/04/24 07:59:52;;;;;;;14.05;6.10;;;9.60;99.90;;;;;;5056415;28;20044;-81
2023/04/24 08:02:26;;;;;;;14.25;7.82;;;9.60;99.90;;;;;;5055637;28;20032;-81
2023/04/24 08:04:53;;;;;;;18.02;8.45;;;9.50;99.90;;;;;;5055143;28;20049;-81
2023/04/24 08:07:18;;;;;;;18.33;9.80;;;9.50;99.90;;;;;;5055735;28;20041;-80
2023/04/24 08:09:44;;;;;;;25.40;11.40;;;9.40;99.90;;;;;;5056368;28;20052;-79
2023/04/24 08:12:09;;;;;;;17.25;11.48;;;9.40;99.90;;;;;;5054776;28;20049;-79
2023/04/24 08:14:35;;;;;;;21.75;11.98;;;9.40;99.90;;;;;;5055610;28;20185;-79
2023/04/24 08:17:01;;;;;;;19.45;11.95;;;9.40;99.90;;;;;;5054564;28;20108;-79
2023/04/24 08:19:26;;;;;;;22.20;13.32;;;9.40;99.90;;;;;;5052190;28;20083;-80
2023/04/24 08:21:52;;;;;;;28.85;13.48;;;9.30;99.90;;;;;;5052801;28;20068;-78
2023/04/24 08:24:17;;;;;;;25.90;14.88;;;9.30;99.90;;;;;;5049942;28;20045;-78
2023/04/24 08:26:43;;;;;;;24.98;13.32;;;9.20;99.90;;;;;;5050179;28;20045;-77
2023/04/24 08:29:08;;;;;;;20.42;12.23;;;9.20;99.90;;;;;;5049719;28;20073;-77
2023/04/24 08:31:35;;;;;;;24.40;13.73;;;9.20;99.90;;;;;;5051421;28;20083;-77
2023/04/24 08:34:00;;;;;;;22.20;12.10;;;9.20;99.90;;;;;;5050022;28;20060;-77
2023/04/24 08:36:26;;;;;;;22.23;12.80;;;9.20;99.90;;;;;;5033229;28;20488;-78
2023/04/24 08:38:52;;;;;;;25.45;12.48;;;9.20;99.90;;;;;;5051414;28;20047;-77
2023/04/24 08:41:19;;;;;;;21.95;11.63;;;9.10;99.90;;;;;;5049464;28;20037;-77
2023/04/24 08:43:46;;;;;;;19.70;11.57;;;9.10;99.90;;;;;;5050975;28;20045;-78
2023/04/24 08:46:13;;;;;;;19.52;11.95;;;9.10;99.90;;;;;;5050837;28;20041;-77
2023/04/24 08:48:39;;;;;;;30.50;12.50;;;9.00;99.90;;;;;;5049123;28;20041;-77
2023/04/24 08:51:07;;;;;;;20.67;11.88;;;9.00;99.90;;;;;;5051766;28;20068;-78
2023/04/24 08:53:34;;;;;;;23.05;12.25;;;9.00;99.90;;;;;;5054636;28;20052;-77
2023/04/24 08:56:01;;;;;;;21.25;12.43;;;9.00;99.90;;;;;;5062481;28;20043;-75
2023/04/24 08:58:27;;;;;;;19.30;11.55;;;9.00;99.90;;;;;;5058499;28;20044;-74
2023/04/24 09:00:57;;;;;;;18.75;11.88;;;8.90;99.90;;;;;;5053197;28;20071;-75
2023/04/24 09:03:23;;;;;;;16.70;10.32;;;8.90;99.90;;;;;;5052800;28;20037;-76
2023/04/24 09:05:50;;;;;;;20.38;11.30;;;8.90;99.90;;;;;;5052644;28;20492;-75
2023/04/24 09:08:19;;;;;;;18.48;10.70;;;8.90;99.90;;;;;;5052530;28;20045;-75
2023/04/24 09:10:46;;;;;;;18.80;11.00;;;8.90;99.90;;;;;;5052562;28;20040;-76
2023/04/24 09:13:11;;;;;;;16.92;10.07;;;9.00;99.90;;;;;;5052692;28;20148;-76
2023/04/24 09:15:39;;;;;;;14.27;9.27;;;9.00;99.90;;;;;;5052737;28;20052;-75
2023/04/24 09:18:05;;;;;;;16.92;8.85;;;9.00;99.90;;;;;;5053570;28;20055;-76
2023/04/24 09:20:31;;;;;;;13.63;8.15;;;9.00;99.90;;;;;;5052559;28;20505;-76
2023/04/24 09:22:58;;;;;;;11.15;7.82;;;9.00;99.90;;;;;;5052434;28;20037;-76
2023/04/24 09:25:32;;;;;;;11.65;7.57;;;9.10;99.90;;;;;;5053717;28;20405;-76
2023/04/24 09:28:01;;;;;;;12.35;7.90;;;9.10;99.90;;;;;;5051924;28;20519;-76
2023/04/24 09:30:27;;;;;;;12.15;7.75;;;9.10;99.90;;;;;;5053702;28;20131;-75
2023/04/24 09:33:13;;;;;;;13.13;8.23;;;9.20;99.90;;;;;;5052741;28;20098;-78
2023/04/24 09:35:48;;;;;;;14.75;7.20;;;9.20;99.90;;;;;;5052487;28;20076;-77
2023/04/24 09:38:13;;;;;;;12.60;7.45;;;9.30;99.90;;;;;;5054924;28;20086;-79
2023/04/24 09:40:39;;;;;;;11.70;7.35;;;9.20;99.90;;;;;;5052642;28;20045;-76
2023/04/24 09:43:10;;;;;;;13.93;7.00;;;9.20;99.90;;;;;;5052262;28;20045;-77
2023/04/24 09:45:38;;;;;;;16.52;7.00;;;9.20;99.90;;;;;;5052640;28;20102;-78
2023/04/24 09:48:04;;;;;;;13.15;6.35;;;9.30;99.90;;;;;;5052870;28;20755;-78
2023/04/24 09:50:34;;;;;;;12.52;6.15;;;9.30;99.90;;;;;;5052274;28;20147;-78
2023/04/24 09:53:02;;;;;;;10.40;5.93;;;9.30;99.90;;;;;;5052579;28;20052;-77
2023/04/24 09:55:28;;;;;;;17.15;6.35;;;9.30;99.90;;;;;;5055444;28;20045;-78
2023/04/24 09:58:04;;;;;;;12.00;5.28;;;9.40;99.90;;;;;;5064562;28;20183;-78
2023/04/24 10:00:32;;;;;;;9.63;5.22;;;9.50;99.90;;;;;;5056027;28;20091;-79
2023/04/24 10:03:08;;;;;;;11.20;5.88;;;9.50;99.90;;;;;;5055532;28;20122;-80
2023/04/24 10:05:38;;;;;;;9.38;5.00;;;9.60;99.90;;;;;;5056593;28;20052;-79
2023/04/24 10:08:10;;;;;;;9.07;4.57;;;9.70;99.90;;;;;;5055099;28;20047;-78
2023/04/24 10:10:44;;;;;;;10.43;4.85;;;9.80;99.90;;;;;;5055251;28;20057;-79
2023/04/24 10:13:11;;;;;;;11.48;4.68;;;9.80;99.90;;;;;;5056578;28;20072;-80
2023/04/24 10:15:38;;;;;;;9.15;3.72;;;10.00;99.90;;;;;;5054239;28;20069;-79
2023/04/24 10:18:08;;;;;;;9.85;3.70;;;10.10;99.90;;;;;;5053252;28;20086;-77
2023/04/24 10:20:37;;;;;;;6.05;3.05;;;10.10;99.90;;;;;;5053847;28;20508;-78
2023/04/24 10:23:05;;;;;;;6.45;3.47;;;10.10;99.90;;;;;;5053507;28;20037;-78
2023/04/24 10:25:35;;;;;;;11.40;3.65;;;10.20;99.90;;;;;;5055872;28;20071;-78
2023/04/24 10:28:02;;;;;;;8.52;3.17;;;10.20;99.90;;;;;;5052545;28;20120;-79
2023/04/24 10:30:29;;;;;;;8.05;3.20;;;10.20;99.90;;;;;;5036319;28;20044;-77
2023/04/24 10:32:55;;;;;;;10.13;3.38;;;10.10;99.90;;;;;;5053083;28;20112;-78
2023/04/24 10:35:24;;;;;;;6.95;3.55;;;10.10;99.90;;;;;;5055236;28;20064;-79
2023/04/24 10:37:54;;;;;;;8.82;3.20;;;10.20;99.90;;;;;;5053031;28;20045;-78
2023/04/24 10:40:29;;;;;;;8.23;3.00;;;10.30;99.90;;;;;;5055664;28;20041;-79
2023/04/24 10:42:56;;;;;;;6.63;2.70;;;10.40;99.90;;;;;;5054201;28;20045;-77
2023/04/24 10:45:23;;;;;;;8.13;2.58;;;10.40;99.90;;;;;;5053932;28;20123;-79
2023/04/24 10:48:10;;;;;;;9.00;2.45;;;10.40;99.90;;;;;;5052446;28;20049;-79
2023/04/24 10:50:52;;;;;;;6.47;2.92;;;10.40;99.90;;;;;;5053287;28;20041;-79
2023/04/24 10:53:19;;;;;;;8.05;3.17;;;10.40;99.90;;;;;;5051312;28;20052;-79
2023/04/24 10:55:49;;;;;;;9.35;2.88;;;10.30;99.90;;;;;;5059978;28;20051;-80
2023/04/24 10:58:16;;;;;;;7.38;3.05;;;10.30;99.90;;;;;;5062309;28;20052;-79
2023/04/24 11:00:44;;;;;;;9.52;2.33;;;10.30;99.90;;;;;;5052171;28;20094;-78
2023/04/24 11:03:30;;;;;;;9.25;2.70;;;10.30;99.90;;;;;;5054366;28;20071;-79
2023/04/24 11:06:08;;;;;;;9.48;2.70;;;10.20;99.90;;;;;;5056344;28;20029;-79
2023/04/24 11:08:43;;;;;;;6.93;2.40;;;10.20;99.90;;;;;;5054892;28;20124;-79
2023/04/24 11:11:17;;;;;;;6.60;2.25;;;10.20;99.90;;;;;;5055145;28;20097;-79
2023/04/24 11:13:55;;;;;;;5.13;1.88;;;10.20;99.90;;;;;;5052672;28;20134;-78
2023/04/24 11:16:22;;;;;;;11.65;2.58;;;10.20;99.90;;;;;;5054599;28;20124;-79
2023/04/24 11:18:53;;;;;;;9.40;2.20;;;10.20;99.90;;;;;;5053871;28;20400;-78
2023/04/24 11:21:20;;;;;;;7.07;2.35;;;10.20;99.90;;;;;;5054801;28;20319;-79
2023/04/24 11:23:46;;;;;;;4.93;2.05;;;10.20;99.90;;;;;;5053661;28;20045;-78
2023/04/24 11:26:24;;;;;;;7.85;1.92;;;10.10;99.90;;;;;;5055897;28;20044;-77
2023/04/24 11:28:50;;;;;;;8.02;2.10;;;10.00;99.90;;;;;;5053898;28;20556;-79
2023/04/24 11:31:36;;;;;;;6.00;1.95;;;10.00;99.90;;;;;;5055753;28;20129;-79
2023/04/24 11:34:13;;;;;;;6.13;2.05;;;9.90;99.90;;;;;;5056617;28;20048;-77
2023/04/24 11:36:42;;;;;;;4.40;1.77;;;9.80;99.90;;;;;;5056706;28;20481;-78
2023/04/24 11:39:07;;;;;;;5.18;1.55;;;9.80;99.90;;;;;;5054618;28;20052;-79
2023/04/24 11:41:34;;;;;;;4.10;1.55;;;9.90;99.90;;;;;;5055145;28;20115;-80
2023/04/24 11:44:00;;;;;;;4.43;1.70;;;10.00;99.90;;;;;;5058793;28;20449;-80
2023/04/24 11:46:30;;;;;;;6.18;1.75;;;10.00;99.90;;;;;;5059017;28;20060;-79
2023/04/24 11:48:56;;;;;;;4.20;2.10;;;10.00;99.90;;;;;;5053069;28;20120;-79
2023/04/24 11:51:27;;;;;;;9.98;2.42;;;9.90;99.90;;;;;;5051359;28;20120;-79
2023/04/24 11:53:56;;;;;;;7.43;1.90;;;9.90;99.90;;;;;;5054035;28;20037;-79
2023/04/24 11:56:23;;;;;;;4.10;1.60;;;9.80;99.90;;;;;;5066847;28;20032;-79
2023/04/24 11:58:48;;;;;;;4.85;1.83;;;9.80;99.90;;;;;;5056544;28;20045;-79
2023/04/24 12:01:14;;;;;;;4.20;1.63;;;9.70;99.90;;;;;;5053715;28;20608;-79
2023/04/24 12:03:43;;;;;;;4.65;1.42;;;9.70;99.90;;;;;;5053891;28;20449;-78
2023/04/24 12:06:11;;;;;;;6.32;2.08;;;9.60;99.90;;;;;;5051886;28;20148;-78
2023/04/24 12:08:37;;;;;;;3.15;1.40;;;9.40;99.90;;;;;;5052420;28;20045;-80
2023/04/24 12:11:06;;;;;;;4.70;1.40;;;9.30;99.90;;;;;;5055303;28;20037;-80
2023/04/24 12:13:32;;;;;;;5.60;1.50;;;9.30;99.90;;;;;;5055140;28;20073;-79
2023/04/24 12:15:58;;;;;;;4.63;1.58;;;9.30;99.90;;;;;;5055279;28;20037;-80
2023/04/24 12:18:24;;;;;;;5.40;1.50;;;9.30;99.90;;;;;;5057901;28;20037;-80
2023/04/24 12:20:50;;;;;;;8.02;1.75;;;9.40;99.90;;;;;;5056664;28;20059;-80
2023/04/24 12:23:17;;;;;;;3.65;1.50;;;9.50;99.90;;;;;;5058008;28;20041;-80
2023/04/24 12:25:43;;;;;;;5.07;1.60;;;9.70;99.90;;;;;;5058007;28;20060;-80
2023/04/24 12:28:12;;;;;;;6.75;1.55;;;9.80;99.90;;;;;;5059979;28;20037;-80
2023/04/24 12:30:48;;;;;;;3.67;1.20;;;9.80;99.90;;;;;;5062700;28;20468;-81
2023/04/24 12:33:19;;;;;;;3.10;1.27;;;9.90;99.90;;;;;;5062847;28;20496;-80
2023/04/24 12:35:45;;;;;;;8.07;1.60;;;9.90;99.90;;;;;;5061797;28;20102;-81
2023/04/24 12:38:12;;;;;;;5.13;1.13;;;10.00;99.90;;;;;;5060751;28;20037;-79
2023/04/24 12:40:39;;;;;;;4.53;1.20;;;10.00;99.90;;;;;;5062257;28;20119;-80
2023/04/24 12:43:18;;;;;;;3.88;1.30;;;10.00;99.90;;;;;;5061120;28;20044;-81
2023/04/24 12:45:44;;;;;;;3.78;1.02;;;10.00;99.90;;;;;;5061967;28;20051;-80